Time;durP1;ratioP1;P1;durP2;ratioP2;P2;SDS_P1;SDS_P2;PMS_P1;PMS_P2;Temp;Humidity;BMP_temperature;BMP_pressure;BME280_temperature;BME280_humidity;BME280_pressure;Samples;Min_cycle;Max_cycle;Signal;HPM_P1;HPM_P2
2022/01/09 00:01:24;;;;;;;24.30;10.00;;;;;;;;;;5125990;27;20474;-48
2022/01/09 00:03:50;;;;;;;19.25;4.07;;;;;;;;;;5125352;27;20116;-45
2022/01/09 00:06:15;;;;;;;8.05;4.75;;;;;;;;;;5125942;27;20027;-48
2022/01/09 00:08:41;;;;;;;7.63;3.88;;;;;;;;;;5125719;27;20015;-48
2022/01/09 00:11:09;;;;;;;7.57;1.85;;;;;;;;;;5125545;27;20083;-49
2022/01/09 00:13:45;;;;;;;7.32;4.47;;;;;;;;;;5125861;27;20106;-47
2022/01/09 00:16:10;;;;;;;21.63;14.77;;;;;;;;;;5125060;27;20026;-50
2022/01/09 00:18:35;;;;;;;11.13;8.60;;;;;;;;;;5126019;27;20023;-46
2022/01/09 00:21:05;;;;;;;11.95;7.28;;;;;;;;;;5125841;27;20150;-48
2022/01/09 00:23:31;;;;;;;9.98;7.55;;;;;;;;;;5124498;27;20049;-48
2022/01/09 00:25:56;;;;;;;25.73;15.85;;;;;;;;;;5125435;27;20458;-45
2022/01/09 00:28:22;;;;;;;40.42;24.90;;;;;;;;;;5125670;27;20046;-50
2022/01/09 00:30:47;;;;;;;33.15;23.83;;;;;;;;;;5124939;27;20029;-48
2022/01/09 00:33:12;;;;;;;13.50;12.07;;;;;;;;;;5126387;27;20079;-47
2022/01/09 00:35:38;;;;;;;6.40;5.22;;;;;;;;;;5124883;27;20508;-49
2022/01/09 00:38:03;;;;;;;8.15;4.90;;;;;;;;;;5125613;27;20096;-50
2022/01/09 00:40:28;;;;;;;9.65;4.43;;;;;;;;;;5125538;27;20019;-49
2022/01/09 00:42:53;;;;;;;5.18;3.33;;;;;;;;;;5124794;27;20023;-51
2022/01/09 00:45:19;;;;;;;9.23;5.07;;;;;;;;;;5124756;27;20019;-50
2022/01/09 00:47:45;;;;;;;5.18;2.90;;;;;;;;;;5125198;27;20019;-49
2022/01/09 00:50:11;;;;;;;4.00;2.83;;;;;;;;;;5125615;27;20042;-49
2022/01/09 00:52:36;;;;;;;6.85;2.47;;;;;;;;;;5123960;27;20478;-49
2022/01/09 00:55:02;;;;;;;6.10;2.45;;;;;;;;;;5124595;27;20033;-48
2022/01/09 00:57:28;;;;;;;12.15;3.22;;;;;;;;;;5124307;27;20054;-46
2022/01/09 00:59:53;;;;;;;18.38;3.30;;;;;;;;;;5125183;27;20596;-45
2022/01/09 01:02:18;;;;;;;4.40;2.65;;;;;;;;;;5124541;27;20417;-48
2022/01/09 01:04:45;;;;;;;9.88;4.50;;;;;;;;;;5124250;27;20039;-46
2022/01/09 01:07:10;;;;;;;6.07;4.55;;;;;;;;;;5124859;27;20026;-45
2022/01/09 01:09:36;;;;;;;11.50;3.55;;;;;;;;;;5125664;27;20015;-49
2022/01/09 01:12:02;;;;;;;11.40;5.70;;;;;;;;;;5122445;27;20023;-48
2022/01/09 01:14:28;;;;;;;12.02;5.28;;;;;;;;;;5123268;27;20386;-52
2022/01/09 01:16:54;;;;;;;22.25;9.52;;;;;;;;;;5122645;27;20034;-49
2022/01/09 01:19:20;;;;;;;12.23;7.68;;;;;;;;;;5123873;27;20027;-51
2022/01/09 01:21:45;;;;;;;5.47;3.65;;;;;;;;;;5123229;27;20525;-48
2022/01/09 01:24:10;;;;;;;7.20;4.53;;;;;;;;;;5125062;27;20080;-44
2022/01/09 01:26:36;;;;;;;9.38;4.70;;;;;;;;;;5124133;28;20031;-47
2022/01/09 01:29:01;;;;;;;13.35;6.35;;;;;;;;;;5124986;28;20025;-50
2022/01/09 01:31:27;;;;;;;15.88;4.90;;;;;;;;;;5122589;28;20876;-47
2022/01/09 01:33:52;;;;;;;15.25;5.55;;;;;;;;;;5124854;28;20029;-50
2022/01/09 01:36:17;;;;;;;12.00;4.03;;;;;;;;;;5125388;28;20042;-47
2022/01/09 01:38:43;;;;;;;22.65;3.97;;;;;;;;;;5125724;28;20099;-50
2022/01/09 01:41:09;;;;;;;10.68;4.57;;;;;;;;;;5123866;28;20561;-49
2022/01/09 01:43:34;;;;;;;12.65;6.20;;;;;;;;;;5124903;28;20037;-47
2022/01/09 01:46:02;;;;;;;12.80;7.25;;;;;;;;;;5124973;28;20023;-49
2022/01/09 01:48:29;;;;;;;15.50;5.15;;;;;;;;;;5123859;27;20012;-45
2022/01/09 01:50:54;;;;;;;16.08;9.68;;;;;;;;;;5123122;27;20027;-48
2022/01/09 01:53:21;;;;;;;12.57;11.27;;;;;;;;;;5123384;28;20484;-50
2022/01/09 01:55:52;;;;;;;10.45;4.63;;;;;;;;;;5125077;28;20041;-50
2022/01/09 01:58:18;;;;;;;12.05;6.93;;;;;;;;;;5124756;28;20031;-47
2022/01/09 02:00:43;;;;;;;6.55;3.13;;;;;;;;;;5123422;28;20031;-48
2022/01/09 02:03:12;;;;;;;10.68;3.40;;;;;;;;;;5123975;28;20055;-45
2022/01/09 02:05:37;;;;;;;15.73;3.53;;;;;;;;;;5124418;28;20141;-48
2022/01/09 02:08:03;;;;;;;13.00;3.78;;;;;;;;;;5124573;28;20521;-46
2022/01/09 02:10:28;;;;;;;15.05;2.97;;;;;;;;;;5123294;27;20019;-46
2022/01/09 02:12:56;;;;;;;11.90;4.82;;;;;;;;;;5122989;27;20026;-45
2022/01/09 02:15:28;;;;;;;9.57;4.50;;;;;;;;;;5125430;27;20019;-47
2022/01/09 02:17:53;;;;;;;;;;;;;;;;;;5126350;27;20043;-47
2022/01/09 02:20:18;;;;;;;9.52;5.10;;;;;;;;;;5126728;27;19958;-48
2022/01/09 02:22:43;;;;;;;19.23;4.90;;;;;;;;;;5127834;27;20050;-47
2022/01/09 02:25:10;;;;;;;7.55;3.78;;;;;;;;;;5128614;27;20023;-44
2022/01/09 02:27:35;;;;;;;12.82;5.28;;;;;;;;;;5128032;27;20031;-49
2022/01/09 02:30:00;;;;;;;15.68;4.55;;;;;;;;;;5127833;27;20385;-49
2022/01/09 02:32:25;;;;;;;14.95;3.25;;;;;;;;;;5124603;27;20030;-45
2022/01/09 02:34:51;;;;;;;7.10;2.53;;;;;;;;;;5127820;27;20022;-50
2022/01/09 02:37:16;;;;;;;9.70;3.35;;;;;;;;;;5127028;27;20034;-46
2022/01/09 02:39:43;;;;;;;7.47;1.95;;;;;;;;;;5127603;27;20035;-49
2022/01/09 02:42:29;;;;;;;6.35;3.13;;;;;;;;;;5127124;27;20031;-49
2022/01/09 02:44:55;;;;;;;7.13;4.38;;;;;;;;;;5128343;27;20027;-44
2022/01/09 02:47:21;;;;;;;11.48;4.28;;;;;;;;;;5126225;27;20023;-46
2022/01/09 02:49:50;;;;;;;5.75;3.53;;;;;;;;;;5126980;27;20152;-49
2022/01/09 02:52:33;;;;;;;6.97;3.20;;;;;;;;;;5125334;27;20038;-45
2022/01/09 02:55:14;;;;;;;17.02;4.57;;;;;;;;;;5127062;27;20078;-46
2022/01/09 02:58:00;;;;;;;7.85;3.50;;;;;;;;;;5125555;27;20011;-47
2022/01/09 03:00:27;;;;;;;10.73;3.20;;;;;;;;;;5126766;27;20031;-49
2022/01/09 03:02:52;;;;;;;15.15;3.97;;;;;;;;;;5126925;27;20023;-46
2022/01/09 03:05:18;;;;;;;10.57;4.20;;;;;;;;;;5127021;27;20076;-49
2022/01/09 03:07:44;;;;;;;28.08;7.05;;;;;;;;;;5126784;27;20059;-45
2022/01/09 03:10:10;;;;;;;8.98;3.97;;;;;;;;;;5126578;27;20352;-47
2022/01/09 03:12:36;;;;;;;6.07;4.05;;;;;;;;;;5123732;27;20016;-50
2022/01/09 03:15:03;;;;;;;7.35;4.15;;;;;;;;;;5127838;27;20083;-49
2022/01/09 03:17:28;;;;;;;14.23;5.22;;;;;;;;;;5126439;27;20019;-48
2022/01/09 03:19:53;;;;;;;10.65;3.95;;;;;;;;;;5126039;27;20054;-47
2022/01/09 03:22:19;;;;;;;4.90;2.75;;;;;;;;;;5125881;27;20034;-50
2022/01/09 03:24:44;;;;;;;7.25;2.08;;;;;;;;;;5126518;27;20106;-47
2022/01/09 03:27:10;;;;;;;7.80;1.83;;;;;;;;;;5126465;27;20087;-47
2022/01/09 03:29:35;;;;;;;11.52;4.68;;;;;;;;;;5108079;27;20499;-49
2022/01/09 03:32:00;;;;;;;16.48;6.10;;;;;;;;;;5124969;27;20055;-49
2022/01/09 03:34:26;;;;;;;6.22;3.78;;;;;;;;;;5127321;27;20029;-45
2022/01/09 03:36:51;;;;;;;3.65;2.38;;;;;;;;;;5126194;27;20551;-48
2022/01/09 03:39:16;;;;;;;8.35;1.52;;;;;;;;;;5126750;27;20019;-45
2022/01/09 03:41:42;;;;;;;5.40;1.88;;;;;;;;;;5125783;27;20023;-45
2022/01/09 03:44:07;;;;;;;7.82;2.28;;;;;;;;;;5125410;27;20019;-48
2022/01/09 03:46:32;;;;;;;4.07;2.58;;;;;;;;;;5126086;27;20702;-49
2022/01/09 03:48:58;;;;;;;5.68;1.73;;;;;;;;;;5125438;27;20027;-47
2022/01/09 03:51:26;;;;;;;9.05;3.33;;;;;;;;;;5122660;27;20027;-47
2022/01/09 03:53:51;;;;;;;6.63;4.15;;;;;;;;;;5124317;27;20016;-47
2022/01/09 03:56:17;;;;;;;3.28;2.00;;;;;;;;;;5127621;27;20071;-46
2022/01/09 03:58:42;;;;;;;7.32;4.40;;;;;;;;;;5128601;27;20015;-49
2022/01/09 04:01:08;;;;;;;6.43;2.72;;;;;;;;;;5129494;27;20019;-51
2022/01/09 04:03:34;;;;;;;10.43;2.58;;;;;;;;;;5128996;27;20015;-46
2022/01/09 04:06:00;;;;;;;5.60;1.88;;;;;;;;;;5128397;27;20049;-50
2022/01/09 04:08:26;;;;;;;4.03;1.75;;;;;;;;;;5128072;27;20675;-45
2022/01/09 04:10:51;;;;;;;4.60;2.00;;;;;;;;;;5127398;27;20030;-50
2022/01/09 04:13:16;;;;;;;3.75;1.58;;;;;;;;;;5127721;27;20015;-45
2022/01/09 04:15:49;;;;;;;6.88;2.15;;;;;;;;;;5126361;27;20023;-48
2022/01/09 04:18:21;;;;;;;3.50;1.40;;;;;;;;;;5127168;27;20537;-50
2022/01/09 04:20:47;;;;;;;3.80;1.60;;;;;;;;;;5128157;27;20050;-45
2022/01/09 04:23:13;;;;;;;6.45;2.95;;;;;;;;;;5128338;27;20027;-50
2022/01/09 04:25:39;;;;;;;4.15;1.80;;;;;;;;;;5124520;27;20020;-50
2022/01/09 04:28:04;;;;;;;3.00;1.58;;;;;;;;;;5127950;27;20015;-47
2022/01/09 04:30:29;;;;;;;7.47;2.92;;;;;;;;;;5127043;27;20374;-51
2022/01/09 04:32:55;;;;;;;7.85;1.35;;;;;;;;;;5126290;27;20030;-52
2022/01/09 04:35:20;;;;;;;6.10;1.52;;;;;;;;;;5108189;27;20007;-51
2022/01/09 04:37:47;;;;;;;7.75;1.55;;;;;;;;;;5126988;27;20469;-50
2022/01/09 04:40:14;;;;;;;2.78;1.20;;;;;;;;;;5126742;27;20046;-48
2022/01/09 04:42:49;;;;;;;3.15;1.40;;;;;;;;;;5127842;27;20486;-47
2022/01/09 04:45:16;;;;;;;2.03;1.10;;;;;;;;;;5127540;27;20027;-48
2022/01/09 04:47:45;;;;;;;4.80;1.80;;;;;;;;;;5127867;27;20068;-46
2022/01/09 04:50:14;;;;;;;7.82;2.15;;;;;;;;;;5127246;27;20030;-47
2022/01/09 04:52:41;;;;;;;8.45;1.52;;;;;;;;;;5126750;27;20023;-50
2022/01/09 04:55:06;;;;;;;3.15;1.58;;;;;;;;;;5126816;27;20060;-47
2022/01/09 04:57:32;;;;;;;3.47;1.08;;;;;;;;;;5126923;27;20079;-47
2022/01/09 04:59:57;;;;;;;9.25;2.17;;;;;;;;;;5127170;27;20030;-51
2022/01/09 05:02:22;;;;;;;7.88;2.42;;;;;;;;;;5126435;27;20569;-49
2022/01/09 05:04:48;;;;;;;7.15;4.03;;;;;;;;;;5127571;27;20071;-51
2022/01/09 05:07:13;;;;;;;9.57;5.13;;;;;;;;;;5126590;27;20026;-48
2022/01/09 05:09:38;;;;;;;7.88;3.83;;;;;;;;;;5126558;27;20022;-43
2022/01/09 05:12:04;;;;;;;8.90;3.58;;;;;;;;;;5125759;27;20038;-47
2022/01/09 05:14:29;;;;;;;6.10;3.83;;;;;;;;;;5125761;27;20029;-48
2022/01/09 05:16:54;;;;;;;8.63;5.57;;;;;;;;;;5126818;27;20015;-48
2022/01/09 05:19:27;;;;;;;23.45;8.35;;;;;;;;;;5125930;27;20646;-47
2022/01/09 05:21:52;;;;;;;24.90;17.85;;;;;;;;;;5127327;27;20047;-47
2022/01/09 05:24:18;;;;;;;19.88;15.52;;;;;;;;;;5126641;27;20429;-43
2022/01/09 05:26:43;;;;;;;21.40;16.50;;;;;;;;;;5126791;28;20051;-46
2022/01/09 05:29:08;;;;;;;18.40;15.07;;;;;;;;;;5127665;28;20046;-47
2022/01/09 05:31:34;;;;;;;25.40;17.02;;;;;;;;;;5127515;28;20023;-47
2022/01/09 05:33:59;;;;;;;24.38;15.20;;;;;;;;;;5127112;28;20067;-46
2022/01/09 05:36:24;;;;;;;23.75;13.60;;;;;;;;;;5126912;28;20027;-44
2022/01/09 05:38:50;;;;;;;27.58;12.82;;;;;;;;;;5127246;28;20030;-44
2022/01/09 05:41:15;;;;;;;19.52;8.85;;;;;;;;;;5127037;28;20103;-48
2022/01/09 05:43:40;;;;;;;11.20;7.82;;;;;;;;;;5126131;28;20569;-51
2022/01/09 05:46:06;;;;;;;10.35;5.80;;;;;;;;;;5126653;28;20031;-50
2022/01/09 05:48:31;;;;;;;5.35;3.53;;;;;;;;;;5125819;27;20020;-50
2022/01/09 05:50:57;;;;;;;6.97;2.60;;;;;;;;;;5112651;27;20021;-48
2022/01/09 05:53:22;;;;;;;8.95;3.08;;;;;;;;;;5129336;27;20024;-46
2022/01/09 05:55:47;;;;;;;2.85;1.77;;;;;;;;;;5130397;27;20050;-48
2022/01/09 05:58:13;;;;;;;7.45;1.45;;;;;;;;;;5130357;27;20019;-46
2022/01/09 06:00:38;;;;;;;3.72;1.80;;;;;;;;;;5130456;27;20075;-49
2022/01/09 06:03:03;;;;;;;7.97;2.60;;;;;;;;;;5112035;27;20042;-46
2022/01/09 06:05:29;;;;;;;6.22;2.28;;;;;;;;;;5130344;27;20034;-44
2022/01/09 06:07:54;;;;;;;8.82;1.90;;;;;;;;;;5130564;27;20110;-43
2022/01/09 06:10:19;;;;;;;11.10;2.00;;;;;;;;;;5130007;27;20546;-46
2022/01/09 06:12:45;;;;;;;6.50;2.00;;;;;;;;;;5128752;27;20026;-45
2022/01/09 06:15:11;;;;;;;1.88;0.88;;;;;;;;;;5129776;27;20038;-45
2022/01/09 06:17:37;;;;;;;13.25;3.08;;;;;;;;;;5129448;27;20019;-46
2022/01/09 06:20:02;;;;;;;12.77;3.33;;;;;;;;;;5130232;27;20059;-44
2022/01/09 06:22:28;;;;;;;7.93;3.95;;;;;;;;;;5129040;27;20535;-48
2022/01/09 06:24:53;;;;;;;9.73;3.58;;;;;;;;;;5129767;27;20023;-47
2022/01/09 06:27:18;;;;;;;7.93;3.20;;;;;;;;;;5130434;27;20478;-46
2022/01/09 06:29:44;;;;;;;7.60;3.60;;;;;;;;;;5128181;27;20015;-47
2022/01/09 06:32:09;;;;;;;10.85;3.08;;;;;;;;;;5130394;27;20027;-44
2022/01/09 06:34:35;;;;;;;6.78;2.83;;;;;;;;;;5129940;27;20007;-46
2022/01/09 06:37:00;;;;;;;8.65;3.08;;;;;;;;;;5130570;27;20110;-44
2022/01/09 06:39:25;;;;;;;10.70;4.22;;;;;;;;;;5128911;27;20064;-44
2022/01/09 06:41:51;;;;;;;6.60;4.13;;;;;;;;;;5129542;27;20098;-45
2022/01/09 06:44:16;;;;;;;10.35;6.10;;;;;;;;;;5130289;27;20626;-45
2022/01/09 06:46:42;;;;;;;12.85;5.82;;;;;;;;;;5130135;27;20791;-47
2022/01/09 06:49:07;;;;;;;11.95;5.32;;;;;;;;;;5129894;27;20094;-47
2022/01/09 06:51:33;;;;;;;9.20;4.25;;;;;;;;;;5128124;27;20031;-47
2022/01/09 06:53:58;;;;;;;7.38;3.13;;;;;;;;;;5129798;27;20072;-46
2022/01/09 06:56:24;;;;;;;5.43;2.03;;;;;;;;;;5129717;27;20293;-44
2022/01/09 06:58:49;;;;;;;7.35;2.55;;;;;;;;;;5128427;27;20031;-45
2022/01/09 07:01:14;;;;;;;10.55;5.10;;;;;;;;;;5129219;27;20019;-48
2022/01/09 07:03:39;;;;;;;17.85;4.82;;;;;;;;;;5129398;27;20019;-48
2022/01/09 07:06:05;;;;;;;9.57;2.95;;;;;;;;;;5129955;27;20027;-45
2022/01/09 07:08:33;;;;;;;14.68;4.82;;;;;;;;;;5129330;27;20019;-45
2022/01/09 07:10:59;;;;;;;10.63;3.78;;;;;;;;;;5128741;27;20038;-46
2022/01/09 07:13:24;;;;;;;11.40;5.30;;;;;;;;;;5128789;27;20517;-44
2022/01/09 07:15:49;;;;;;;15.75;9.68;;;;;;;;;;5128974;27;20011;-46
2022/01/09 07:18:15;;;;;;;20.33;13.00;;;;;;;;;;5130251;27;20022;-47
2022/01/09 07:20:40;;;;;;;17.35;11.32;;;;;;;;;;5128968;27;20039;-46
2022/01/09 07:23:05;;;;;;;22.23;14.18;;;;;;;;;;5129976;27;20031;-47
2022/01/09 07:25:30;;;;;;;16.42;11.90;;;;;;;;;;5129761;27;20023;-44
2022/01/09 07:27:56;;;;;;;16.58;11.95;;;;;;;;;;5127585;27;20026;-47
2022/01/09 07:30:21;;;;;;;15.63;9.10;;;;;;;;;;5129532;27;20026;-46
2022/01/09 07:32:47;;;;;;;11.85;8.18;;;;;;;;;;5129564;27;20098;-44
2022/01/09 07:35:12;;;;;;;11.93;7.10;;;;;;;;;;5129642;27;20008;-48
2022/01/09 07:37:37;;;;;;;19.92;7.70;;;;;;;;;;5129705;27;20480;-47
2022/01/09 07:40:03;;;;;;;19.00;7.80;;;;;;;;;;5128386;27;20015;-46
2022/01/09 07:42:28;;;;;;;9.57;4.80;;;;;;;;;;5129647;27;20063;-44
2022/01/09 07:44:54;;;;;;;12.80;6.38;;;;;;;;;;5128339;27;20030;-44
2022/01/09 07:47:19;;;;;;;8.75;4.10;;;;;;;;;;5126552;27;20031;-47
2022/01/09 07:49:44;;;;;;;7.55;3.35;;;;;;;;;;5128717;27;20022;-45
2022/01/09 07:52:10;;;;;;;7.15;3.28;;;;;;;;;;5128917;27;20030;-48
2022/01/09 07:54:35;;;;;;;10.27;5.32;;;;;;;;;;5129168;27;20161;-51
2022/01/09 07:57:00;;;;;;;8.93;4.63;;;;;;;;;;5129259;27;20023;-46
2022/01/09 07:59:26;;;;;;;13.23;6.88;;;;;;;;;;5128504;27;20095;-47
2022/01/09 08:01:51;;;;;;;10.55;5.28;;;;;;;;;;5119001;27;20583;-49
2022/01/09 08:04:17;;;;;;;6.80;4.38;;;;;;;;;;5119178;27;20041;-47
2022/01/09 08:06:42;;;;;;;6.25;3.45;;;;;;;;;;5125465;27;20023;-48
2022/01/09 08:09:07;;;;;;;24.77;7.78;;;;;;;;;;5124986;27;20505;-46
2022/01/09 08:11:33;;;;;;;17.30;6.35;;;;;;;;;;5124272;27;20024;-46
2022/01/09 08:13:58;;;;;;;6.35;4.72;;;;;;;;;;5125744;27;20023;-45
2022/01/09 08:16:24;;;;;;;7.45;4.20;;;;;;;;;;5125970;27;20054;-48
2022/01/09 08:18:49;;;;;;;2.10;1.75;;;;;;;;;;5122531;27;20060;-49
2022/01/09 08:21:19;;;;;;;10.18;3.20;;;;;;;;;;5123875;27;20092;-48
2022/01/09 08:23:45;;;;;;;5.80;3.30;;;;;;;;;;5123137;27;20027;-45
2022/01/09 08:26:10;;;;;;;9.13;1.80;;;;;;;;;;5125904;27;20024;-48
2022/01/09 08:28:38;;;;;;;8.68;2.75;;;;;;;;;;5125983;27;20354;-46
2022/01/09 08:31:03;;;;;;;3.63;2.45;;;;;;;;;;5124447;27;20034;-47
2022/01/09 08:33:28;;;;;;;12.90;4.10;;;;;;;;;;5125623;27;20386;-48
2022/01/09 08:35:55;;;;;;;6.35;1.73;;;;;;;;;;5124904;27;20031;-48
2022/01/09 08:38:20;;;;;;;6.32;2.38;;;;;;;;;;5125842;27;20164;-50
2022/01/09 08:40:46;;;;;;;3.95;1.00;;;;;;;;;;5125265;27;20102;-48
2022/01/09 08:43:11;;;;;;;1.35;0.60;;;;;;;;;;5125580;27;20109;-47
2022/01/09 08:45:36;;;;;;;2.75;1.05;;;;;;;;;;5106789;27;20525;-50
2022/01/09 08:48:02;;;;;;;2.00;0.70;;;;;;;;;;5124879;27;20076;-46
2022/01/09 08:50:27;;;;;;;3.05;1.00;;;;;;;;;;5124859;27;20027;-49
2022/01/09 08:52:52;;;;;;;1.88;0.73;;;;;;;;;;5124193;27;20486;-44
2022/01/09 08:55:18;;;;;;;8.48;1.75;;;;;;;;;;5124367;27;20015;-47
2022/01/09 08:57:44;;;;;;;11.77;2.35;;;;;;;;;;5123964;27;20090;-46
2022/01/09 09:00:10;;;;;;;7.03;1.80;;;;;;;;;;5124653;27;20031;-44
2022/01/09 09:02:35;;;;;;;4.30;2.38;;;;;;;;;;5126638;27;20087;-45
2022/01/09 09:05:00;;;;;;;3.25;1.73;;;;;;;;;;5124478;27;20150;-46
2022/01/09 09:07:26;;;;;;;5.05;2.75;;;;;;;;;;5124068;27;20027;-47
2022/01/09 09:09:51;;;;;;;6.18;3.10;;;;;;;;;;5123123;27;20023;-45
2022/01/09 09:12:17;;;;;;;9.05;1.48;;;;;;;;;;5122671;27;20015;-50
2022/01/09 09:14:42;;;;;;;3.88;1.80;;;;;;;;;;5124447;27;20022;-46
2022/01/09 09:17:08;;;;;;;5.57;1.55;;;;;;;;;;5123295;27;20023;-45
2022/01/09 09:19:33;;;;;;;13.57;4.55;;;;;;;;;;5124117;27;20038;-45
2022/01/09 09:21:58;;;;;;;13.57;5.70;;;;;;;;;;5125337;27;20442;-46
2022/01/09 09:24:24;;;;;;;17.20;3.70;;;;;;;;;;5102770;27;20492;-49
2022/01/09 09:26:49;;;;;;;7.25;3.90;;;;;;;;;;5124140;27;20034;-45
2022/01/09 09:29:14;;;;;;;19.27;4.88;;;;;;;;;;5123803;28;20027;-46
2022/01/09 09:31:40;;;;;;;19.23;5.00;;;;;;;;;;5123241;28;20015;-48
2022/01/09 09:34:08;;;;;;;5.63;2.03;;;;;;;;;;5124664;28;20024;-48
2022/01/09 09:36:37;;;;;;;4.43;0.80;;;;;;;;;;5123066;28;20049;-50
2022/01/09 09:39:08;;;;;;;6.80;2.15;;;;;;;;;;5122615;28;20282;-49
2022/01/09 09:41:33;;;;;;;3.13;0.85;;;;;;;;;;5124221;28;20024;-46
2022/01/09 09:43:59;;;;;;;7.72;1.73;;;;;;;;;;5122173;28;20080;-46
2022/01/09 09:46:25;;;;;;;3.38;0.95;;;;;;;;;;5123808;27;20031;-48
2022/01/09 09:48:51;;;;;;;4.57;1.65;;;;;;;;;;5122607;27;20114;-45
2022/01/09 09:51:16;;;;;;;12.43;2.33;;;;;;;;;;5118160;28;20019;-47
2022/01/09 09:53:42;;;;;;;16.27;2.88;;;;;;;;;;5120431;28;20041;-50
2022/01/09 09:56:07;;;;;;;11.40;4.57;;;;;;;;;;5123191;28;20525;-48
2022/01/09 09:58:32;;;;;;;3.22;0.63;;;;;;;;;;5123626;27;20027;-48
2022/01/09 10:00:58;;;;;;;10.93;2.92;;;;;;;;;;5124124;28;20072;-48
2022/01/09 10:03:30;;;;;;;6.53;2.95;;;;;;;;;;5123303;28;20099;-49
2022/01/09 10:05:56;;;;;;;1.35;1.13;;;;;;;;;;5123860;27;20028;-46
2022/01/09 10:08:21;;;;;;;5.32;2.13;;;;;;;;;;5125862;28;20037;-48
2022/01/09 10:10:47;;;;;;;0.32;0.30;;;;;;;;;;5124348;28;20124;-51
2022/01/09 10:13:12;;;;;;;3.80;1.85;;;;;;;;;;5125672;28;20030;-49
2022/01/09 10:15:51;;;;;;;5.05;1.60;;;;;;;;;;5124250;28;20015;-50
2022/01/09 10:18:55;;;;;;;6.20;1.52;;;;;;;;;;5124006;27;20015;-49
2022/01/09 10:21:22;;;;;;;1.92;1.05;;;;;;;;;;5044114;28;20052;-50
2022/01/09 10:24:06;;;;;;;4.05;1.33;;;;;;;;;;5045676;28;20025;-52
2022/01/09 10:26:36;;;;;;;4.80;3.10;;;;;;;;;;5095338;28;20038;-51
2022/01/09 10:29:03;;;;;;;7.10;1.52;;;;;;;;;;5124858;27;20022;-52
2022/01/09 10:31:28;;;;;;;11.13;1.40;;;;;;;;;;5125433;28;20011;-48
2022/01/09 10:34:06;;;;;;;1.80;0.98;;;;;;;;;;5125606;28;20080;-51
2022/01/09 10:36:32;;;;;;;4.28;2.03;;;;;;;;;;5125726;27;20023;-52
2022/01/09 10:39:02;;;;;;;8.65;1.88;;;;;;;;;;5129017;27;20054;-50
2022/01/09 10:41:43;;;;;;;9.23;2.50;;;;;;;;;;5128555;27;20082;-49
2022/01/09 10:44:13;;;;;;;2.72;1.40;;;;;;;;;;5127717;27;20078;-51
2022/01/09 10:46:38;;;;;;;3.22;1.55;;;;;;;;;;5128957;27;20848;-49
2022/01/09 10:49:03;;;;;;;5.72;2.13;;;;;;;;;;5129280;27;20114;-51
2022/01/09 10:51:29;;;;;;;4.82;1.92;;;;;;;;;;5130557;27;20054;-47
2022/01/09 10:53:54;;;;;;;10.55;2.35;;;;;;;;;;5111825;27;20516;-47
2022/01/09 10:56:20;;;;;;;10.10;4.53;;;;;;;;;;5129817;27;20015;-47
2022/01/09 10:58:45;;;;;;;6.20;2.78;;;;;;;;;;5128248;27;20062;-48
2022/01/09 11:01:23;;;;;;;10.35;3.80;;;;;;;;;;5129883;27;20603;-47
2022/01/09 11:03:51;;;;;;;4.85;1.88;;;;;;;;;;5129425;27;20099;-49
2022/01/09 11:06:17;;;;;;;16.23;3.47;;;;;;;;;;5128513;27;20019;-48
2022/01/09 11:08:43;;;;;;;6.47;1.73;;;;;;;;;;5129743;27;20019;-47
2022/01/09 11:11:16;;;;;;;8.70;3.72;;;;;;;;;;5129780;27;20026;-46
2022/01/09 11:13:42;;;;;;;5.78;3.30;;;;;;;;;;5127337;27;20030;-47
2022/01/09 11:18:51;;;;;;;19.05;2.60;;;;;;;;;;5129483;27;20075;-44
2022/01/09 11:21:17;;;;;;;11.35;4.20;;;;;;;;;;5129141;27;20043;-49
2022/01/09 11:24:01;;;;;;;16.33;2.78;;;;;;;;;;5128648;27;20359;-46
2022/01/09 11:26:29;;;;;;;27.75;3.58;;;;;;;;;;5129212;27;20015;-48
2022/01/09 11:28:55;;;;;;;18.45;6.55;;;;;;;;;;5128832;27;20023;-47
2022/01/09 11:31:38;;;;;;;6.80;2.65;;;;;;;;;;5128596;27;20050;-47
2022/01/09 11:34:16;;;;;;;5.45;2.10;;;;;;;;;;5128005;27;20011;-49
2022/01/09 11:36:52;;;;;;;7.70;2.50;;;;;;;;;;5127623;27;20015;-47
2022/01/09 11:39:18;;;;;;;9.32;2.58;;;;;;;;;;5129306;27;20136;-46
2022/01/09 11:41:45;;;;;;;4.18;2.78;;;;;;;;;;5128606;27;20510;-48
2022/01/09 11:44:11;;;;;;;7.28;3.25;;;;;;;;;;5129676;27;20407;-51
2022/01/09 11:46:58;;;;;;;9.95;3.80;;;;;;;;;;5127635;27;20011;-50
2022/01/09 11:49:23;;;;;;;8.38;2.40;;;;;;;;;;5129051;27;20110;-47
2022/01/09 11:51:52;;;;;;;10.63;2.45;;;;;;;;;;5128098;27;20473;-50
2022/01/09 11:54:19;;;;;;;7.90;2.55;;;;;;;;;;5128580;27;20047;-47
2022/01/09 11:56:47;;;;;;;3.40;1.60;;;;;;;;;;5126920;27;20017;-48
2022/01/09 11:59:15;;;;;;;4.97;2.15;;;;;;;;;;5127826;27;20030;-45
2022/01/09 12:01:41;;;;;;;15.55;3.00;;;;;;;;;;5127966;27;20119;-46
2022/01/09 12:04:08;;;;;;;7.05;2.75;;;;;;;;;;5126949;27;20019;-46
2022/01/09 12:06:40;;;;;;;6.32;1.90;;;;;;;;;;5128069;27;20055;-45
2022/01/09 12:09:07;;;;;;;10.15;5.05;;;;;;;;;;5126567;27;20072;-44
2022/01/09 12:11:51;;;;;;;11.85;3.22;;;;;;;;;;5128519;27;20029;-50
2022/01/09 12:14:36;;;;;;;7.07;4.95;;;;;;;;;;5128383;27;20433;-47
2022/01/09 12:17:01;;;;;;;10.75;8.20;;;;;;;;;;5127353;27;20020;-50
2022/01/09 12:20:08;;;;;;;15.45;9.45;;;;;;;;;;5127713;27;20030;-51
2022/01/09 12:22:46;;;;;;;23.15;13.15;;;;;;;;;;5044354;28;20782;-49
2022/01/09 12:25:28;;;;;;;25.33;13.95;;;;;;;;;;5119435;27;20739;-51
2022/01/09 12:27:57;;;;;;;11.00;5.18;;;;;;;;;;5125305;27;20398;-48
2022/01/09 12:30:44;;;;;;;9.10;2.75;;;;;;;;;;5126883;27;20068;-49
2022/01/09 12:33:09;;;;;;;20.75;7.55;;;;;;;;;;5127768;27;20023;-48
2022/01/09 12:35:36;;;;;;;20.67;6.28;;;;;;;;;;5128277;27;20526;-49
2022/01/09 12:38:01;;;;;;;5.07;3.20;;;;;;;;;;5127510;27;20033;-47
2022/01/09 12:40:28;;;;;;;17.83;6.78;;;;;;;;;;5127603;27;20495;-49
2022/01/09 12:42:55;;;;;;;21.15;7.20;;;;;;;;;;5127633;27;20106;-47
2022/01/09 12:45:21;;;;;;;6.32;3.17;;;;;;;;;;5127208;27;20088;-49
2022/01/09 12:47:47;;;;;;;9.85;6.07;;;;;;;;;;5127485;27;20102;-47
2022/01/09 12:50:12;;;;;;;7.55;4.78;;;;;;;;;;5125802;27;20562;-44
2022/01/09 12:52:37;;;;;;;13.23;3.97;;;;;;;;;;5127449;27;20022;-47
2022/01/09 12:55:04;;;;;;;14.80;6.15;;;;;;;;;;5128058;27;20087;-45
2022/01/09 12:57:29;;;;;;;9.25;6.10;;;;;;;;;;5126057;27;20019;-46
2022/01/09 12:59:55;;;;;;;22.38;12.32;;;;;;;;;;5127463;27;20023;-44
2022/01/09 13:02:21;;;;;;;17.95;7.65;;;;;;;;;;5126084;27;20019;-49
2022/01/09 13:04:47;;;;;;;16.00;7.57;;;;;;;;;;5127546;27;20023;-47
2022/01/09 13:07:16;;;;;;;12.18;7.07;;;;;;;;;;5125616;27;20748;-46
2022/01/09 13:09:42;;;;;;;17.25;7.82;;;;;;;;;;5127876;27;20023;-45
2022/01/09 13:12:07;;;;;;;14.38;6.68;;;;;;;;;;5126602;27;20075;-49
2022/01/09 13:14:33;;;;;;;8.48;5.82;;;;;;;;;;5124106;27;20481;-46
2022/01/09 13:16:59;;;;;;;14.68;7.63;;;;;;;;;;5125674;27;20488;-49
2022/01/09 13:19:25;;;;;;;15.00;8.40;;;;;;;;;;5123814;27;20110;-48
2022/01/09 13:21:51;;;;;;;10.07;4.50;;;;;;;;;;5126278;27;20466;-49
2022/01/09 13:24:19;;;;;;;6.75;3.83;;;;;;;;;;5127050;27;20015;-48
2022/01/09 13:26:52;;;;;;;8.60;3.35;;;;;;;;;;5124354;27;20023;-50
2022/01/09 13:29:18;;;;;;;8.65;5.05;;;;;;;;;;5125041;28;20080;-47
2022/01/09 13:31:47;;;;;;;7.85;4.40;;;;;;;;;;5125282;28;20019;-48
2022/01/09 13:34:27;;;;;;;11.05;3.28;;;;;;;;;;5126244;27;20110;-48
2022/01/09 13:36:52;;;;;;;3.78;2.50;;;;;;;;;;5125731;28;20023;-48
2022/01/09 13:39:24;;;;;;;10.77;9.25;;;;;;;;;;5124550;28;20030;-49
2022/01/09 13:41:58;;;;;;;6.57;5.03;;;;;;;;;;5124316;28;20401;-47
2022/01/09 13:44:25;;;;;;;5.35;2.70;;;;;;;;;;5126118;28;20061;-48
2022/01/09 13:47:01;;;;;;;10.90;9.73;;;;;;;;;;5126208;28;20109;-51
2022/01/09 13:49:27;;;;;;;8.85;6.03;;;;;;;;;;5126971;28;20011;-46
2022/01/09 13:51:53;;;;;;;8.38;4.15;;;;;;;;;;5126113;28;20061;-45
2022/01/09 13:54:20;;;;;;;12.40;6.03;;;;;;;;;;5124721;28;20027;-48
2022/01/09 13:56:57;;;;;;;6.75;4.32;;;;;;;;;;5124989;28;20023;-50
2022/01/09 13:59:33;;;;;;;7.93;3.13;;;;;;;;;;5126498;28;20026;-51
2022/01/09 14:01:59;;;;;;;8.00;6.45;;;;;;;;;;5126647;28;20031;-49
2022/01/09 14:04:24;;;;;;;4.28;2.92;;;;;;;;;;5127028;28;20027;-48
2022/01/09 14:06:56;;;;;;;3.10;1.70;;;;;;;;;;5125887;28;20018;-47
2022/01/09 14:09:25;;;;;;;6.13;2.22;;;;;;;;;;5125192;27;20496;-47
2022/01/09 14:11:58;;;;;;;2.53;1.23;;;;;;;;;;5129467;27;20064;-45
2022/01/09 14:14:27;;;;;;;4.90;3.53;;;;;;;;;;5130193;27;20106;-44
2022/01/09 14:16:53;;;;;;;6.63;2.83;;;;;;;;;;5129037;27;20130;-47
2022/01/09 14:19:18;;;;;;;7.38;2.55;;;;;;;;;;5130838;27;20479;-48
2022/01/09 14:21:50;;;;;;;2.80;1.85;;;;;;;;;;5130389;27;20108;-47
2022/01/09 14:24:16;;;;;;;17.73;4.55;;;;;;;;;;5131121;27;20535;-49
2022/01/09 14:26:53;;;;;;;13.93;2.65;;;;;;;;;;5130766;27;20027;-48
2022/01/09 14:29:32;;;;;;;7.18;3.17;;;;;;;;;;5129474;27;20020;-50
2022/01/09 14:31:57;;;;;;;3.22;2.25;;;;;;;;;;5128629;27;20127;-46
2022/01/09 14:34:23;;;;;;;10.93;3.58;;;;;;;;;;5129998;27;20094;-50
2022/01/09 14:36:48;;;;;;;21.48;9.70;;;;;;;;;;5130325;27;20083;-48
2022/01/09 14:39:13;;;;;;;13.55;8.40;;;;;;;;;;5130245;27;20023;-47
2022/01/09 14:41:38;;;;;;;9.45;6.65;;;;;;;;;;5129839;27;20486;-48